createdAt,value
2018-11-29T00:00:19.840Z,20.63
2018-11-29T00:00:54.476Z,19.67
2018-11-29T00:01:29.370Z,20.13
2018-11-29T00:02:04.084Z,20.73
2018-11-29T00:02:38.745Z,20.23
2018-11-29T00:03:13.398Z,19.73
2018-11-29T00:03:48.123Z,19.67
2018-11-29T00:04:22.763Z,20.27
2018-11-29T00:04:57.404Z,21.73
2018-11-29T00:05:32.449Z,21.40
2018-11-29T00:06:07.049Z,19.63
2018-11-29T00:06:41.666Z,19.10
2018-11-29T00:07:16.279Z,20.40
2018-11-29T00:07:51.281Z,19.40
2018-11-29T00:08:25.918Z,20.40
2018-11-29T00:09:00.536Z,18.93
2018-11-29T00:09:39.510Z,19.10
2018-11-29T00:10:14.201Z,19.07
2018-11-29T00:10:48.862Z,19.80
2018-11-29T00:11:23.505Z,18.40
2018-11-29T00:17:02.882Z,17.47
2018-11-29T00:17:38.690Z,17.97
2018-11-29T00:18:13.357Z,18.37
2018-11-29T00:18:48.070Z,20.17
2018-11-29T00:19:22.773Z,20.50
2018-11-29T00:19:57.377Z,20.40
2018-11-29T00:20:32.544Z,20.90
2018-11-29T00:21:07.456Z,18.77
2018-11-29T00:21:42.156Z,21.27
2018-11-29T00:22:16.786Z,20.73
2018-11-29T00:22:52.007Z,18.93
2018-11-29T00:23:26.632Z,20.50
2018-11-29T00:24:01.236Z,20.43
2018-11-29T00:24:35.895Z,19.50
2018-11-29T00:25:11.958Z,19.60
2018-11-29T00:25:46.545Z,20.63
2018-11-29T00:26:21.540Z,18.67
2018-11-29T00:26:56.238Z,19.17
2018-11-29T00:27:30.878Z,19.80
2018-11-29T00:28:06.420Z,20.20
2018-11-29T00:28:41.128Z,20.57
2018-11-29T00:29:15.841Z,18.40
2018-11-29T00:29:50.575Z,20.47
2018-11-29T00:30:25.799Z,20.53
2018-11-29T00:31:00.427Z,20.17
2018-11-29T00:31:35.110Z,18.93
2018-11-29T00:32:09.825Z,20.33
2018-11-29T00:32:44.862Z,18.67
2018-11-29T00:33:19.618Z,19.87
2018-11-29T00:33:54.254Z,19.63
2018-11-29T00:34:28.889Z,18.93
2018-11-29T00:35:03.763Z,20.10
2018-11-29T00:35:38.526Z,20.33
2018-11-29T00:36:13.276Z,20.67
2018-11-29T00:36:47.979Z,20.50
2018-11-29T00:37:22.609Z,20.87
2018-11-29T00:37:57.318Z,20.43
2018-11-29T00:38:32.007Z,20.67
2018-11-29T00:39:07.580Z,19.57
2018-11-29T00:39:42.285Z,19.57
2018-11-29T00:40:19.698Z,19.90
2018-11-29T00:40:54.376Z,20.00
2018-11-29T00:41:29.000Z,20.10
2018-11-29T00:42:03.804Z,18.93
2018-11-29T00:42:38.434Z,20.03
2018-11-29T00:43:13.035Z,19.50
2018-11-29T00:43:47.690Z,19.77
2018-11-29T00:44:22.361Z,20.77
2018-11-29T00:44:56.959Z,19.23
2018-11-29T00:45:31.573Z,19.73
2018-11-29T00:46:06.414Z,19.87
2018-11-29T00:46:41.133Z,20.00
2018-11-29T00:47:15.771Z,19.67
2018-11-29T00:47:50.699Z,20.40
2018-11-29T00:48:25.377Z,20.27
2018-11-29T00:49:00.134Z,20.40
2018-11-29T00:49:34.830Z,21.17
2018-11-29T00:50:10.974Z,18.90
2018-11-29T00:50:45.598Z,20.00
2018-11-29T00:51:20.307Z,20.33
2018-11-29T00:51:55.020Z,20.43
2018-11-29T00:52:29.728Z,20.87
2018-11-29T00:53:04.825Z,20.87
2018-11-29T00:53:39.494Z,20.00
2018-11-29T00:54:14.149Z,20.00
2018-11-29T00:54:48.830Z,21.00
2018-11-29T00:55:24.061Z,21.33
2018-11-29T00:55:58.678Z,20.13
2018-11-29T00:56:33.382Z,20.43
2018-11-29T00:57:08.095Z,19.83
2018-11-29T00:57:42.759Z,20.17
2018-11-29T00:58:17.395Z,21.40
2018-11-29T00:58:52.033Z,20.87
2018-11-29T00:59:26.652Z,20.07
2018-11-29T01:00:01.375Z,20.93
2018-11-29T01:00:36.103Z,20.77
2018-11-29T01:01:10.744Z,21.93
2018-11-29T01:01:50.694Z,20.97
2018-11-29T01:02:25.347Z,19.77
2018-11-29T01:02:59.969Z,20.93
2018-11-29T01:03:34.751Z,19.43
2018-11-29T01:04:09.402Z,19.67
2018-11-29T01:04:44.124Z,19.50
2018-11-29T01:05:19.243Z,20.80
2018-11-29T01:05:53.890Z,20.77
2018-11-29T01:06:28.508Z,20.53
2018-11-29T01:07:03.151Z,19.53
2018-11-29T01:07:37.799Z,19.93
2018-11-29T01:08:15.258Z,19.87
2018-11-29T01:08:50.003Z,20.63
2018-11-29T01:09:24.944Z,20.80
2018-11-29T01:09:59.650Z,21.07
2018-11-29T01:10:34.330Z,21.27
2018-11-29T01:11:09.171Z,22.23
2018-11-29T01:11:43.947Z,19.87
2018-11-29T01:12:18.608Z,20.60
2018-11-29T01:12:53.284Z,21.17
2018-11-29T01:13:28.233Z,20.13
2018-11-29T01:14:02.974Z,19.63
2018-11-29T01:14:37.625Z,19.87
2018-11-29T01:15:15.138Z,20.93
2018-11-29T01:15:50.287Z,21.30
2018-11-29T01:16:25.004Z,21.13
2018-11-29T01:16:59.740Z,20.80
2018-11-29T01:17:34.392Z,19.90
2018-11-29T01:18:09.050Z,20.63
2018-11-29T01:18:43.712Z,21.27
2018-11-29T01:19:18.431Z,21.13
2018-11-29T01:19:53.109Z,21.03
2018-11-29T01:20:27.931Z,21.23
2018-11-29T01:21:02.633Z,20.73
2018-11-29T01:21:37.309Z,20.47
2018-11-29T01:22:12.425Z,20.43
2018-11-29T01:22:47.096Z,20.60
2018-11-29T01:23:21.801Z,20.93
2018-11-29T01:23:56.530Z,21.17
2018-11-29T01:24:31.283Z,21.53
2018-11-29T01:25:07.397Z,21.30
2018-11-29T01:25:42.116Z,19.90
2018-11-29T01:26:16.856Z,20.73
2018-11-29T01:26:51.466Z,19.73
2018-11-29T01:27:26.149Z,21.80
2018-11-29T01:28:00.767Z,20.50
2018-11-29T01:28:35.471Z,20.37
2018-11-29T01:29:10.114Z,20.83
2018-11-29T01:29:44.746Z,20.87
2018-11-29T01:30:20.586Z,21.30
2018-11-29T01:30:55.186Z,20.43
2018-11-29T01:31:29.774Z,21.07
2018-11-29T01:32:04.395Z,20.47
2018-11-29T01:32:39.596Z,22.30
2018-11-29T01:33:14.265Z,20.97
2018-11-29T01:33:48.959Z,20.47
2018-11-29T01:34:23.951Z,20.40
2018-11-29T01:34:58.586Z,20.97
2018-11-29T01:35:33.626Z,21.93
2018-11-29T01:36:08.339Z,20.50
2018-11-29T01:36:42.968Z,21.27
2018-11-29T01:37:17.717Z,21.47
2018-11-29T01:37:52.342Z,21.03
2018-11-29T01:38:27.075Z,20.13
2018-11-29T01:39:01.688Z,21.20
2018-11-29T01:39:42.981Z,20.53
2018-11-29T01:40:21.014Z,21.20
2018-11-29T01:40:55.713Z,21.17
2018-11-29T01:41:30.425Z,21.80
2018-11-29T01:42:05.346Z,20.80
2018-11-29T01:42:40.069Z,20.97
2018-11-29T01:43:14.660Z,21.87
2018-11-29T01:43:49.394Z,21.60
2018-11-29T01:44:24.125Z,21.30
2018-11-29T01:44:58.822Z,22.67
2018-11-29T01:45:33.916Z,22.10
2018-11-29T01:46:08.521Z,22.03
2018-11-29T01:46:43.485Z,21.43
2018-11-29T01:47:18.138Z,21.80
2018-11-29T01:47:52.833Z,22.03
2018-11-29T01:48:27.514Z,21.00
2018-11-29T01:49:02.080Z,21.37
2018-11-29T01:49:36.794Z,23.67
2018-11-29T01:50:11.416Z,22.87
2018-11-29T01:50:46.083Z,21.30
2018-11-29T01:51:20.712Z,22.77
2018-11-29T01:51:55.330Z,20.93
2018-11-29T01:52:29.946Z,22.10
2018-11-29T01:53:04.665Z,21.63
2018-11-29T01:53:39.311Z,21.53
2018-11-29T01:54:13.928Z,22.53
2018-11-29T01:54:48.619Z,23.13
2018-11-29T01:55:23.352Z,22.20
2018-11-29T01:55:58.027Z,21.83
2018-11-29T01:56:32.642Z,21.87
2018-11-29T01:57:08.130Z,23.57
2018-11-29T01:57:42.804Z,22.17
2018-11-29T01:58:17.528Z,23.30
2018-11-29T01:58:52.147Z,23.07
2018-11-29T01:59:26.770Z,22.93
2018-11-29T02:00:01.455Z,21.63
2018-11-29T02:00:36.852Z,22.10
2018-11-29T02:01:11.499Z,22.70
2018-11-29T02:01:46.126Z,22.50
2018-11-29T02:02:20.774Z,23.20
2018-11-29T02:02:55.675Z,23.07
2018-11-29T02:03:29.987Z,22.63
2018-11-29T02:04:05.310Z,22.60
2018-11-29T02:04:40.043Z,21.77
2018-11-29T02:05:15.140Z,22.97
2018-11-29T02:05:49.865Z,21.40
2018-11-29T02:06:24.557Z,23.00
2018-11-29T02:06:59.176Z,20.40
2018-11-29T02:07:33.832Z,22.27
2018-11-29T02:08:08.441Z,21.87
2018-11-29T02:08:43.145Z,23.77
2018-11-29T02:09:17.781Z,22.43
2018-11-29T02:09:56.558Z,22.40
2018-11-29T02:10:36.355Z,21.77
2018-11-29T02:11:11.021Z,21.97
2018-11-29T02:11:45.669Z,21.53
2018-11-29T02:12:20.311Z,23.13
2018-11-29T02:12:55.513Z,21.90
2018-11-29T02:13:30.111Z,22.67
2018-11-29T02:14:05.223Z,22.10
2018-11-29T02:14:39.855Z,21.70
2018-11-29T02:15:14.508Z,21.43
2018-11-29T02:15:49.138Z,22.83
2018-11-29T02:16:23.742Z,23.03
2018-11-29T02:16:58.399Z,22.70
2018-11-29T02:17:33.015Z,24.10
2018-11-29T02:18:07.728Z,22.90
2018-11-29T02:18:42.946Z,23.20
2018-11-29T02:19:17.703Z,22.33
2018-11-29T02:19:52.314Z,22.73
2018-11-29T02:20:27.003Z,22.27
2018-11-29T02:21:01.632Z,23.40
2018-11-29T02:21:36.602Z,22.30
2018-11-29T02:22:11.212Z,23.03
2018-11-29T02:22:46.548Z,22.47
2018-11-29T02:23:21.173Z,23.70
2018-11-29T02:23:55.765Z,23.37
2018-11-29T02:24:30.437Z,22.93
2018-11-29T02:25:06.177Z,23.07
2018-11-29T02:25:40.810Z,22.30
2018-11-29T02:26:15.433Z,23.93
2018-11-29T02:26:50.097Z,22.13
2018-11-29T02:27:24.709Z,22.53
2018-11-29T02:27:59.350Z,22.10
2018-11-29T02:28:34.053Z,23.67
2018-11-29T02:29:08.778Z,22.27
2018-11-29T02:29:43.510Z,23.40
2018-11-29T02:30:20.449Z,22.20
2018-11-29T02:30:55.182Z,22.77
2018-11-29T02:31:34.038Z,22.93
2018-11-29T02:32:08.709Z,22.73
2018-11-29T02:32:43.641Z,23.07
2018-11-29T02:33:18.300Z,23.80
2018-11-29T02:33:53.122Z,23.30
2018-11-29T02:34:27.732Z,23.53
2018-11-29T02:35:02.726Z,24.13
2018-11-29T02:35:37.363Z,22.43
2018-11-29T02:36:11.989Z,22.73
2018-11-29T02:36:46.750Z,23.07
2018-11-29T02:37:21.423Z,22.63
2018-11-29T02:37:56.093Z,22.77
2018-11-29T02:38:31.056Z,23.13
2018-11-29T02:39:08.285Z,25.37
2018-11-29T02:39:42.954Z,22.90
2018-11-29T02:40:18.395Z,23.63
2018-11-29T02:40:53.193Z,22.23
2018-11-29T02:41:27.858Z,23.27
2018-11-29T02:42:02.461Z,24.20
2018-11-29T02:42:37.202Z,22.90
2018-11-29T02:43:11.936Z,23.37
2018-11-29T02:43:46.765Z,24.50
2018-11-29T02:44:21.416Z,22.83
2018-11-29T02:44:56.270Z,22.60
2018-11-29T02:45:31.105Z,23.13
2018-11-29T02:46:05.935Z,24.07
2018-11-29T02:46:40.603Z,23.33
2018-11-29T02:47:15.254Z,22.27
2018-11-29T02:47:50.417Z,23.17
2018-11-29T02:48:25.069Z,22.80
2018-11-29T02:48:59.705Z,22.60
2018-11-29T02:49:34.402Z,22.80
2018-11-29T02:50:10.076Z,22.93
2018-11-29T02:50:44.835Z,23.00
2018-11-29T02:51:19.479Z,23.57
2018-11-29T02:51:54.088Z,23.83
2018-11-29T02:52:28.685Z,24.90
2018-11-29T02:53:03.316Z,23.20
2018-11-29T02:53:38.054Z,23.57
2018-11-29T02:54:12.685Z,24.87
2018-11-29T02:54:47.326Z,23.13
2018-11-29T02:55:22.202Z,25.37
2018-11-29T02:55:56.922Z,23.07
2018-11-29T02:56:31.530Z,22.13
2018-11-29T02:57:06.133Z,23.30
2018-11-29T02:57:41.157Z,23.23
2018-11-29T02:58:15.807Z,24.00
2018-11-29T02:58:50.763Z,24.30
2018-11-29T02:59:25.604Z,24.23
2018-11-29T03:00:00.217Z,24.80
2018-11-29T03:00:34.990Z,25.13
2018-11-29T03:01:09.678Z,24.80
2018-11-29T03:01:44.287Z,24.43
2018-11-29T03:02:19.025Z,24.87
2018-11-29T03:02:53.732Z,24.80
2018-11-29T03:03:28.450Z,23.23
2018-11-29T03:04:03.161Z,24.07
2018-11-29T03:04:37.859Z,23.83
2018-11-29T03:05:12.607Z,24.60
2018-11-29T03:05:47.440Z,23.63
2018-11-29T03:06:22.158Z,24.50
2018-11-29T03:06:56.843Z,22.73
2018-11-29T03:07:31.445Z,22.93
2018-11-29T03:08:06.276Z,24.87
2018-11-29T03:08:41.018Z,24.90
2018-11-29T03:09:15.980Z,24.00
2018-11-29T03:09:54.611Z,25.07
2018-11-29T03:10:29.519Z,24.20
2018-11-29T03:11:04.107Z,23.60
2018-11-29T03:11:38.759Z,23.73
2018-11-29T03:12:13.382Z,24.97
2018-11-29T03:12:48.091Z,24.33
2018-11-29T03:13:22.711Z,24.40
2018-11-29T03:13:57.348Z,24.67
2018-11-29T03:14:32.007Z,23.97
2018-11-29T03:15:10.414Z,23.53
2018-11-29T03:15:45.132Z,23.50
2018-11-29T03:16:19.873Z,24.03
2018-11-29T03:16:54.504Z,24.43
2018-11-29T03:17:29.478Z,24.23
2018-11-29T03:18:04.178Z,23.60
2018-11-29T03:18:38.844Z,24.67
2018-11-29T03:19:13.468Z,25.57
2018-11-29T03:19:48.424Z,24.57
2018-11-29T03:20:23.097Z,25.27
2018-11-29T03:20:57.946Z,26.00
2018-11-29T03:21:32.581Z,25.17
2018-11-29T03:22:07.464Z,25.90
2018-11-29T03:22:42.516Z,25.30
2018-11-29T03:23:17.408Z,25.13
2018-11-29T03:23:52.172Z,24.60
2018-11-29T03:24:26.857Z,25.10
2018-11-29T03:25:01.599Z,25.47
2018-11-29T03:25:36.400Z,25.33
2018-11-29T03:26:11.122Z,24.73
2018-11-29T03:26:45.865Z,23.73
2018-11-29T03:27:20.727Z,23.13
2018-11-29T03:27:55.579Z,23.93
2018-11-29T03:28:30.230Z,24.37
2018-11-29T03:29:05.262Z,26.13
2018-11-29T03:29:39.884Z,25.60
2018-11-29T03:30:15.611Z,25.17
2018-11-29T03:30:50.474Z,24.70
2018-11-29T03:31:25.098Z,25.67
2018-11-29T03:32:00.375Z,25.47
2018-11-29T03:32:35.023Z,26.27
2018-11-29T03:33:09.685Z,25.13
2018-11-29T03:33:44.338Z,25.17
2018-11-29T03:34:19.343Z,25.73
2018-11-29T03:34:54.554Z,25.63
2018-11-29T03:35:29.153Z,26.63
2018-11-29T03:36:03.841Z,24.97
2018-11-29T03:36:38.507Z,26.13
2018-11-29T03:37:13.154Z,25.13
2018-11-29T03:37:48.963Z,24.83
2018-11-29T03:38:23.779Z,26.03
2018-11-29T03:38:58.465Z,24.40
2018-11-29T03:39:33.213Z,25.93
2018-11-29T03:40:13.602Z,24.27
2018-11-29T03:40:48.605Z,24.60
2018-11-29T03:41:23.408Z,24.43
2018-11-29T03:41:58.063Z,26.30
2018-11-29T03:42:32.691Z,25.70
2018-11-29T03:43:07.833Z,26.07
2018-11-29T03:43:42.465Z,25.47
2018-11-29T03:44:17.405Z,23.93
2018-11-29T03:44:52.264Z,25.60
2018-11-29T03:45:26.905Z,25.03
2018-11-29T03:46:01.554Z,23.77
2018-11-29T03:46:36.233Z,26.27
2018-11-29T03:47:10.901Z,25.60
2018-11-29T03:47:46.804Z,26.90
2018-11-29T03:48:22.385Z,24.83
2018-11-29T03:48:57.172Z,25.97
2018-11-29T03:49:31.778Z,25.50
2018-11-29T03:50:09.597Z,26.27
2018-11-29T03:50:44.321Z,25.50
2018-11-29T03:51:19.236Z,27.30
2018-11-29T03:51:54.158Z,26.60
2018-11-29T03:52:28.945Z,25.60
2018-11-29T03:53:03.584Z,25.77
2018-11-29T03:53:38.186Z,26.73
2018-11-29T03:54:12.831Z,24.73
2018-11-29T03:54:47.781Z,27.53
2018-11-29T03:55:22.784Z,25.50
2018-11-29T03:55:57.560Z,26.30
2018-11-29T03:56:32.213Z,25.93
2018-11-29T03:57:07.456Z,27.90
2018-11-29T03:57:42.100Z,26.03
2018-11-29T03:58:16.975Z,26.53
2018-11-29T03:58:51.692Z,26.50
2018-11-29T03:59:26.367Z,25.63
2018-11-29T04:00:00.983Z,26.10
2018-11-29T04:00:35.614Z,25.90
2018-11-29T04:01:10.312Z,25.97
2018-11-29T04:01:45.363Z,25.07
2018-11-29T04:02:20.256Z,26.87
2018-11-29T04:02:54.859Z,25.33
2018-11-29T04:03:29.649Z,25.33
2018-11-29T04:04:04.807Z,24.90
2018-11-29T04:04:39.569Z,27.63
2018-11-29T04:05:15.541Z,26.30
2018-11-29T04:05:50.491Z,25.23
2018-11-29T04:06:25.144Z,25.87
2018-11-29T04:06:59.818Z,26.50
2018-11-29T04:07:34.570Z,25.83
2018-11-29T04:08:09.433Z,25.53
2018-11-29T04:08:44.291Z,24.27
2018-11-29T04:09:19.094Z,25.63
2018-11-29T04:09:53.837Z,26.17
2018-11-29T04:10:28.525Z,24.70
2018-11-29T04:11:03.198Z,26.27
2018-11-29T04:11:37.848Z,26.27
2018-11-29T04:12:12.506Z,26.40
2018-11-29T04:12:47.590Z,26.20
2018-11-29T04:13:22.274Z,25.13
2018-11-29T04:13:56.917Z,25.03
2018-11-29T04:14:31.624Z,25.83
2018-11-29T04:15:07.886Z,25.93
2018-11-29T04:15:42.531Z,24.23
2018-11-29T04:16:17.635Z,25.57
2018-11-29T04:16:52.381Z,24.70
2018-11-29T04:17:27.245Z,24.37
2018-11-29T04:18:01.874Z,25.47
2018-11-29T04:18:36.521Z,24.13
2018-11-29T04:19:11.260Z,26.13
2018-11-29T04:19:46.830Z,25.13
2018-11-29T04:20:21.507Z,26.10
2018-11-29T04:20:56.191Z,25.73
2018-11-29T04:21:30.916Z,25.20
2018-11-29T04:22:05.608Z,24.73
2018-11-29T04:22:40.343Z,23.73
2018-11-29T04:23:14.976Z,23.33
2018-11-29T04:23:49.710Z,25.23
2018-11-29T04:24:24.379Z,25.03
2018-11-29T04:24:59.014Z,24.77
2018-11-29T04:25:34.102Z,25.90
2018-11-29T04:26:08.738Z,25.43
2018-11-29T04:26:43.709Z,25.33
2018-11-29T04:27:19.380Z,25.17
2018-11-29T04:27:54.031Z,26.37
2018-11-29T04:28:28.750Z,27.03
2018-11-29T04:29:03.395Z,26.47
2018-11-29T04:29:38.064Z,27.03
2018-11-29T04:30:17.210Z,26.07
2018-11-29T04:30:51.918Z,25.23
2018-11-29T04:31:26.529Z,25.73
2018-11-29T04:32:01.266Z,25.50
2018-11-29T04:32:35.869Z,25.90
2018-11-29T04:33:10.559Z,25.03
2018-11-29T04:33:45.169Z,26.00
2018-11-29T04:34:19.824Z,27.03
2018-11-29T04:34:54.496Z,26.17
2018-11-29T04:35:29.153Z,25.47
2018-11-29T04:36:04.126Z,24.93
2018-11-29T04:36:38.725Z,23.87
2018-11-29T04:37:13.332Z,24.17
2018-11-29T04:37:48.025Z,24.17
2018-11-29T04:38:22.668Z,26.20
2018-11-29T04:38:57.297Z,25.70
2018-11-29T04:39:31.930Z,25.43
2018-11-29T04:40:09.238Z,25.00
2018-11-29T04:40:44.085Z,24.00
2018-11-29T04:41:18.982Z,24.90
2018-11-29T04:41:53.647Z,24.30
2018-11-29T04:42:28.249Z,25.20
2018-11-29T04:43:02.905Z,25.60
2018-11-29T04:43:37.617Z,25.23
2018-11-29T04:44:12.365Z,25.70
2018-11-29T04:44:47.387Z,23.10
2018-11-29T04:45:22.594Z,24.80
2018-11-29T04:46:08.541Z,24.27
2018-11-29T04:46:49.125Z,22.47
2018-11-29T04:47:23.860Z,24.40
2018-11-29T04:47:58.618Z,24.27
2018-11-29T04:48:33.296Z,24.30
2018-11-29T04:49:07.978Z,24.63
2018-11-29T04:49:43.257Z,24.50
2018-11-29T04:50:18.777Z,24.10
2018-11-29T04:50:53.515Z,23.53
2018-11-29T04:51:28.230Z,23.57
2018-11-29T04:52:02.932Z,22.80
2018-11-29T04:52:37.753Z,24.13
2018-11-29T04:53:12.339Z,24.70
2018-11-29T04:53:47.146Z,23.50
2018-11-29T04:54:21.909Z,24.30
2018-11-29T04:54:56.610Z,23.70
2018-11-29T04:55:31.229Z,25.50
2018-11-29T04:56:05.898Z,24.43
2018-11-29T04:56:40.547Z,24.07
2018-11-29T04:57:15.220Z,24.53
2018-11-29T04:57:49.996Z,24.20
2018-11-29T04:58:24.658Z,24.40
2018-11-29T04:58:59.342Z,23.53
2018-11-29T04:59:33.988Z,24.57
2018-11-29T05:00:17.769Z,25.07
2018-11-29T05:00:52.436Z,23.00
2018-11-29T05:01:27.101Z,25.03
2018-11-29T05:02:02.183Z,24.90
2018-11-29T05:02:36.813Z,25.97
2018-11-29T05:03:11.558Z,24.33
2018-11-29T05:03:46.215Z,25.37
2018-11-29T05:04:20.942Z,24.13
2018-11-29T05:04:55.773Z,24.33
2018-11-29T05:05:30.426Z,23.57
2018-11-29T05:06:05.137Z,24.83
2018-11-29T05:06:39.852Z,24.30
2018-11-29T05:07:14.577Z,24.93
2018-11-29T05:07:49.361Z,24.17
2018-11-29T05:08:24.126Z,22.70
2018-11-29T05:08:58.810Z,24.20
2018-11-29T05:09:33.571Z,23.57
2018-11-29T05:10:09.947Z,24.70
2018-11-29T05:10:44.556Z,23.73
2018-11-29T05:11:19.255Z,23.43
2018-11-29T05:11:53.898Z,23.80
2018-11-29T05:12:31.465Z,25.00
2018-11-29T05:13:06.849Z,23.93
2018-11-29T05:13:41.469Z,24.00
2018-11-29T05:14:16.179Z,24.30
2018-11-29T05:14:50.825Z,24.83
2018-11-29T05:15:25.498Z,24.37
2018-11-29T05:16:00.217Z,24.03
2018-11-29T05:16:34.851Z,24.30
2018-11-29T05:17:09.590Z,24.63
2018-11-29T05:17:44.259Z,25.03
2018-11-29T05:18:19.004Z,25.87
2018-11-29T05:18:53.841Z,25.40
2018-11-29T05:19:28.486Z,24.47
2018-11-29T05:20:03.218Z,24.97
2018-11-29T05:20:37.875Z,25.70
2018-11-29T05:21:12.696Z,25.23
2018-11-29T05:21:47.559Z,24.27
2018-11-29T05:22:22.273Z,25.53
2018-11-29T05:22:57.080Z,25.63
2018-11-29T05:23:31.737Z,27.40
2018-11-29T05:24:06.919Z,25.47
2018-11-29T05:24:41.597Z,25.13
2018-11-29T05:25:17.108Z,27.17
2018-11-29T05:25:51.208Z,26.10
2018-11-29T05:26:25.956Z,25.80
2018-11-29T05:27:00.690Z,26.57
2018-11-29T05:27:36.112Z,26.90
2018-11-29T05:28:10.794Z,27.17
2018-11-29T05:28:46.711Z,27.87
2018-11-29T05:29:21.676Z,27.37
2018-11-29T05:29:56.381Z,29.43
2018-11-29T05:30:31.052Z,28.07
2018-11-29T05:31:06.486Z,28.30
2018-11-29T05:31:42.184Z,28.40
2018-11-29T05:32:17.008Z,27.63
2018-11-29T05:32:51.809Z,26.50
2018-11-29T05:33:26.701Z,27.87
2018-11-29T05:34:01.396Z,28.33
2018-11-29T05:34:36.180Z,27.47
2018-11-29T05:35:11.755Z,27.83
2018-11-29T05:35:46.715Z,29.07
2018-11-29T05:36:21.637Z,27.23
2018-11-29T05:36:56.301Z,28.37
2018-11-29T05:37:30.943Z,29.33
2018-11-29T05:38:05.663Z,28.07
2018-11-29T05:38:40.273Z,29.07
2018-11-29T05:39:15.016Z,28.17
2018-11-29T05:39:49.840Z,27.60
2018-11-29T05:40:24.725Z,27.27
2018-11-29T05:40:59.651Z,28.10
2018-11-29T05:41:34.392Z,28.87
2018-11-29T05:42:09.000Z,29.37
2018-11-29T05:42:43.961Z,26.23
2018-11-29T05:43:18.601Z,27.13
2018-11-29T05:43:53.307Z,28.23
2018-11-29T05:44:28.042Z,27.80
2018-11-29T05:45:02.857Z,27.17
2018-11-29T05:45:37.508Z,27.57
2018-11-29T05:46:12.145Z,27.70
2018-11-29T05:46:47.514Z,28.17
2018-11-29T05:47:22.289Z,27.13
2018-11-29T05:47:56.917Z,27.20
2018-11-29T05:48:31.753Z,27.57
2018-11-29T05:49:06.774Z,28.10
2018-11-29T05:49:41.475Z,28.97
2018-11-29T05:50:16.227Z,27.07
2018-11-29T05:50:51.087Z,29.80
2018-11-29T05:51:25.750Z,29.20
2018-11-29T05:52:00.470Z,28.63
2018-11-29T05:52:35.165Z,28.57
2018-11-29T05:53:10.103Z,27.03
2018-11-29T05:53:44.848Z,27.70
2018-11-29T05:54:19.520Z,28.30
2018-11-29T05:54:54.134Z,28.33
2018-11-29T05:55:28.784Z,28.13
2018-11-29T05:56:03.453Z,27.50
2018-11-29T05:56:38.105Z,26.50
2018-11-29T05:57:12.819Z,27.53
2018-11-29T05:57:47.654Z,27.60
2018-11-29T05:58:22.390Z,28.27
2018-11-29T05:58:57.012Z,29.03
2018-11-29T05:59:31.707Z,27.27
2018-11-29T06:00:09.246Z,28.33
2018-11-29T06:00:44.327Z,27.97
2018-11-29T06:01:21.838Z,28.10
2018-11-29T06:01:56.593Z,29.17
2018-11-29T06:02:31.238Z,29.10
2018-11-29T06:03:06.187Z,27.90
2018-11-29T06:03:40.798Z,29.20
2018-11-29T06:04:15.487Z,28.40
2018-11-29T06:04:50.145Z,28.97
2018-11-29T06:05:24.835Z,27.50
2018-11-29T06:05:59.504Z,27.23
2018-11-29T06:06:34.172Z,28.10
2018-11-29T06:07:08.827Z,29.10
2018-11-29T06:07:43.856Z,26.30
2018-11-29T06:08:18.610Z,27.47
2018-11-29T06:08:53.445Z,27.27
2018-11-29T06:09:28.068Z,28.00
2018-11-29T06:10:02.701Z,28.43
2018-11-29T06:10:37.332Z,26.97
2018-11-29T06:11:12.040Z,28.13
2018-11-29T06:11:46.876Z,28.30
2018-11-29T06:12:21.670Z,27.50
2018-11-29T06:12:56.335Z,27.30
2018-11-29T06:13:31.030Z,26.17
2018-11-29T06:14:07.058Z,27.60
2018-11-29T06:14:41.898Z,27.83
2018-11-29T06:15:16.867Z,26.70
2018-11-29T06:15:51.564Z,29.50
2018-11-29T06:16:26.192Z,26.73
2018-11-29T06:17:00.984Z,27.30
2018-11-29T06:17:35.642Z,26.87
2018-11-29T06:18:10.299Z,29.40
2018-11-29T06:18:45.063Z,26.87
2018-11-29T06:19:20.285Z,26.50
2018-11-29T06:19:55.032Z,27.57
2018-11-29T06:20:29.702Z,27.03
2018-11-29T06:21:04.776Z,27.97
2018-11-29T06:21:39.569Z,28.20
2018-11-29T06:22:14.382Z,28.23
2018-11-29T06:22:49.342Z,27.47
2018-11-29T06:23:24.151Z,28.30
2018-11-29T06:23:58.821Z,27.77
2018-11-29T06:24:33.544Z,29.23
2018-11-29T06:25:08.377Z,27.80
2018-11-29T06:25:43.048Z,25.90
2018-11-29T06:26:17.971Z,28.03
2018-11-29T06:26:52.812Z,26.70
2018-11-29T06:27:27.633Z,27.70
2018-11-29T06:28:02.678Z,26.87
2018-11-29T06:28:37.468Z,27.53
2018-11-29T06:29:12.202Z,27.10
2018-11-29T06:29:47.134Z,27.43
2018-11-29T06:30:23.201Z,27.80
2018-11-29T06:30:57.939Z,28.17
2018-11-29T06:31:32.659Z,28.70
2018-11-29T06:32:07.371Z,29.87
2018-11-29T06:32:42.369Z,27.23
2018-11-29T06:33:17.189Z,28.63
2018-11-29T06:33:52.135Z,27.30
2018-11-29T06:34:26.784Z,29.60
2018-11-29T06:35:01.500Z,26.13
2018-11-29T06:35:36.190Z,26.87
2018-11-29T06:36:10.932Z,28.33
2018-11-29T06:36:45.744Z,27.60
2018-11-29T06:37:20.784Z,26.83
2018-11-29T06:37:55.551Z,28.30
2018-11-29T06:38:30.209Z,28.57
2018-11-29T06:39:07.314Z,27.10
2018-11-29T06:39:42.041Z,26.37
2018-11-29T06:40:17.575Z,27.07
2018-11-29T06:40:52.389Z,27.50
2018-11-29T06:41:27.111Z,27.10
2018-11-29T06:42:02.124Z,29.27
2018-11-29T06:42:37.064Z,28.23
2018-11-29T06:43:11.896Z,28.50
2018-11-29T06:43:46.968Z,28.17
2018-11-29T06:44:21.910Z,26.50
2018-11-29T06:44:56.732Z,27.07
2018-11-29T06:45:31.517Z,26.03
2018-11-29T06:46:06.574Z,28.57
2018-11-29T06:46:41.272Z,27.50
2018-11-29T06:47:16.026Z,27.23
2018-11-29T06:47:51.979Z,26.67
2018-11-29T06:48:26.699Z,27.87
2018-11-29T06:49:01.569Z,28.60
2018-11-29T06:49:36.293Z,26.83
2018-11-29T06:50:12.776Z,27.93
2018-11-29T06:50:47.558Z,27.57
2018-11-29T06:51:22.329Z,27.27
2018-11-29T06:51:57.122Z,28.27
2018-11-29T06:52:31.941Z,27.70
2018-11-29T06:53:11.194Z,27.53
2018-11-29T06:53:51.316Z,27.30
2018-11-29T06:54:26.269Z,27.83
2018-11-29T06:55:00.960Z,28.30
2018-11-29T06:55:35.645Z,30.03
2018-11-29T06:56:10.424Z,28.87
2018-11-29T06:56:45.238Z,27.97
2018-11-29T06:57:20.141Z,27.73
2018-11-29T06:58:57.916Z,28.47
2018-11-29T06:59:32.596Z,25.07
2018-11-29T07:00:17.940Z,26.40
2018-11-29T07:00:52.710Z,24.87
2018-11-29T07:01:27.464Z,27.47
2018-11-29T07:02:02.289Z,27.47
2018-11-29T07:02:37.008Z,25.97
2018-11-29T07:03:11.835Z,26.60
2018-11-29T07:03:46.786Z,27.63
2018-11-29T07:04:21.570Z,27.40
2018-11-29T07:04:56.635Z,26.83
2018-11-29T07:05:31.340Z,28.83
2018-11-29T07:06:07.235Z,27.53
2018-11-29T07:06:41.948Z,27.17
2018-11-29T07:07:16.903Z,27.60
2018-11-29T07:07:52.120Z,27.10
2018-11-29T07:08:26.982Z,27.10
2018-11-29T07:09:01.646Z,27.67
2018-11-29T07:09:36.316Z,27.20
2018-11-29T07:10:11.954Z,27.43
2018-11-29T07:10:47.134Z,27.63
2018-11-29T07:11:22.131Z,27.30
2018-11-29T07:11:56.807Z,28.50
2018-11-29T07:12:31.675Z,27.60
2018-11-29T07:13:08.062Z,25.37
2018-11-29T07:13:43.224Z,28.57
2018-11-29T07:14:18.078Z,27.00
2018-11-29T07:14:52.997Z,28.47
2018-11-29T07:15:27.773Z,26.00
2018-11-29T07:16:02.560Z,27.07
2018-11-29T07:16:37.267Z,27.47
2018-11-29T07:17:12.060Z,27.10
2018-11-29T07:17:46.832Z,28.43
2018-11-29T07:18:21.922Z,26.67
2018-11-29T07:18:56.874Z,27.10
2018-11-29T07:19:31.636Z,26.77
2018-11-29T07:20:10.066Z,28.13
2018-11-29T07:20:54.821Z,26.63
2018-11-29T07:22:02.300Z,26.70
2018-11-29T07:22:37.066Z,24.70
2018-11-29T07:23:11.836Z,26.17
2018-11-29T07:23:46.669Z,26.63
2018-11-29T07:24:21.478Z,26.83
2018-11-29T07:24:56.478Z,26.90
2018-11-29T07:25:31.089Z,25.70
2018-11-29T07:26:06.637Z,26.07
2018-11-29T07:26:41.351Z,27.63
2018-11-29T07:27:16.328Z,26.70
2018-11-29T07:27:51.439Z,27.47
2018-11-29T07:28:26.144Z,29.00
2018-11-29T07:29:00.871Z,27.87
2018-11-29T07:29:35.520Z,27.03
2018-11-29T07:30:14.635Z,27.83
2018-11-29T07:30:49.569Z,28.43
2018-11-29T07:31:24.364Z,27.83
2018-11-29T07:31:59.724Z,27.73
2018-11-29T07:32:34.402Z,28.00
2018-11-29T07:33:09.057Z,28.33
2018-11-29T07:33:44.147Z,27.97
2018-11-29T07:34:18.962Z,27.57
2018-11-29T07:34:53.955Z,28.10
2018-11-29T07:35:28.598Z,28.03
2018-11-29T07:36:03.318Z,27.50
2018-11-29T07:36:38.134Z,28.30
2018-11-29T07:37:17.284Z,27.27